sensor_id;sensor_type;location;lat;lon;timestamp;temperature;humidity
46752;DHT22;32497;48.936;9.270;2022-10-24T00:04:05;17.80;64.90
46752;DHT22;32497;48.936;9.270;2022-10-24T00:09:07;17.70;66.00
46752;DHT22;32497;48.936;9.270;2022-10-24T00:14:08;17.50;66.20
46752;DHT22;32497;48.936;9.270;2022-10-24T00:19:09;17.50;66.80
46752;DHT22;32497;48.936;9.270;2022-10-24T00:24:12;17.30;66.90
46752;DHT22;32497;48.936;9.270;2022-10-24T00:29:13;17.10;67.90
46752;DHT22;32497;48.936;9.270;2022-10-24T00:34:14;16.80;68.90
46752;DHT22;32497;48.936;9.270;2022-10-24T00:39:17;16.80;68.90
46752;DHT22;32497;48.936;9.270;2022-10-24T00:44:20;16.70;69.50
46752;DHT22;32497;48.936;9.270;2022-10-24T00:49:27;16.60;69.20
46752;DHT22;32497;48.936;9.270;2022-10-24T00:54:30;16.70;69.20
46752;DHT22;32497;48.936;9.270;2022-10-24T00:59:33;16.70;68.60
46752;DHT22;32497;48.936;9.270;2022-10-24T01:04:34;16.70;69.70
46752;DHT22;32497;48.936;9.270;2022-10-24T01:09:48;16.60;70.30
46752;DHT22;32497;48.936;9.270;2022-10-24T01:15:02;16.50;70.50
46752;DHT22;32497;48.936;9.270;2022-10-24T01:25:50;16.50;70.60
46752;DHT22;32497;48.936;9.270;2022-10-24T01:31:03;16.20;70.40
46752;DHT22;32497;48.936;9.270;2022-10-24T01:36:10;16.20;70.90
46752;DHT22;32497;48.936;9.270;2022-10-24T01:41:16;16.20;71.40
46752;DHT22;32497;48.936;9.270;2022-10-24T01:46:21;16.20;71.70
46752;DHT22;32497;48.936;9.270;2022-10-24T01:51:26;16.20;71.00
46752;DHT22;32497;48.936;9.270;2022-10-24T01:56:28;16.50;69.70
46752;DHT22;32497;48.936;9.270;2022-10-24T02:01:31;16.60;69.80
46752;DHT22;32497;48.936;9.270;2022-10-24T02:06:34;16.50;70.40
46752;DHT22;32497;48.936;9.270;2022-10-24T02:11:37;16.40;70.70
46752;DHT22;32497;48.936;9.270;2022-10-24T02:16:40;16.40;70.80
46752;DHT22;32497;48.936;9.270;2022-10-24T02:21:47;16.40;71.40
46752;DHT22;32497;48.936;9.270;2022-10-24T02:26:54;16.40;71.40
46752;DHT22;32497;48.936;9.270;2022-10-24T02:31:58;16.40;71.50
46752;DHT22;32497;48.936;9.270;2022-10-24T02:37:00;16.40;72.40
46752;DHT22;32497;48.936;9.270;2022-10-24T02:42:02;16.30;72.90
46752;DHT22;32497;48.936;9.270;2022-10-24T02:47:07;16.20;73.60
46752;DHT22;32497;48.936;9.270;2022-10-24T02:52:10;16.20;73.70
46752;DHT22;32497;48.936;9.270;2022-10-24T02:57:12;16.10;74.00
46752;DHT22;32497;48.936;9.270;2022-10-24T03:02:14;16.20;73.90
46752;DHT22;32497;48.936;9.270;2022-10-24T03:07:15;16.20;73.70
46752;DHT22;32497;48.936;9.270;2022-10-24T03:12:16;16.40;73.40
46752;DHT22;32497;48.936;9.270;2022-10-24T03:17:19;16.30;74.00
46752;DHT22;32497;48.936;9.270;2022-10-24T03:22:20;16.20;74.50
46752;DHT22;32497;48.936;9.270;2022-10-24T03:27:22;16.20;74.70
46752;DHT22;32497;48.936;9.270;2022-10-24T03:32:24;16.20;75.00
46752;DHT22;32497;48.936;9.270;2022-10-24T03:37:25;16.20;75.10
46752;DHT22;32497;48.936;9.270;2022-10-24T03:42:27;16.20;75.20
46752;DHT22;32497;48.936;9.270;2022-10-24T03:47:29;16.30;75.30
46752;DHT22;32497;48.936;9.270;2022-10-24T03:52:30;16.20;75.60
46752;DHT22;32497;48.936;9.270;2022-10-24T03:57:31;16.30;75.70
46752;DHT22;32497;48.936;9.270;2022-10-24T04:02:34;16.20;76.40
46752;DHT22;32497;48.936;9.270;2022-10-24T04:07:35;16.20;76.60
46752;DHT22;32497;48.936;9.270;2022-10-24T04:12:36;16.20;76.80
46752;DHT22;32497;48.936;9.270;2022-10-24T04:17:39;16.20;77.20
46752;DHT22;32497;48.936;9.270;2022-10-24T04:22:40;16.30;76.90
46752;DHT22;32497;48.936;9.270;2022-10-24T04:27:41;16.20;77.50
46752;DHT22;32497;48.936;9.270;2022-10-24T04:32:43;16.20;78.00
46752;DHT22;32497;48.936;9.270;2022-10-24T04:37:44;16.20;77.90
46752;DHT22;32497;48.936;9.270;2022-10-24T04:42:45;16.20;77.80
46752;DHT22;32497;48.936;9.270;2022-10-24T04:47:48;16.20;77.80
46752;DHT22;32497;48.936;9.270;2022-10-24T04:52:49;16.10;78.40
46752;DHT22;32497;48.936;9.270;2022-10-24T04:57:50;16.00;78.70
46752;DHT22;32497;48.936;9.270;2022-10-24T05:02:52;15.90;78.70
46752;DHT22;32497;48.936;9.270;2022-10-24T05:07:54;15.90;78.90
46752;DHT22;32497;48.936;9.270;2022-10-24T05:12:55;16.00;78.80
46752;DHT22;32497;48.936;9.270;2022-10-24T05:17:58;16.10;78.40
46752;DHT22;32497;48.936;9.270;2022-10-24T05:22:59;16.10;78.20
46752;DHT22;32497;48.936;9.270;2022-10-24T05:28:00;16.20;77.70
46752;DHT22;32497;48.936;9.270;2022-10-24T05:33:02;16.30;77.50
46752;DHT22;32497;48.936;9.270;2022-10-24T05:38:04;16.40;77.50
46752;DHT22;32497;48.936;9.270;2022-10-24T05:43:05;16.40;77.70
46752;DHT22;32497;48.936;9.270;2022-10-24T05:48:07;16.50;77.30
46752;DHT22;32497;48.936;9.270;2022-10-24T05:53:08;16.30;78.70
46752;DHT22;32497;48.936;9.270;2022-10-24T05:58:09;16.20;79.20
46752;DHT22;32497;48.936;9.270;2022-10-24T06:03:12;15.80;82.30
46752;DHT22;32497;48.936;9.270;2022-10-24T06:08:13;15.80;81.30
46752;DHT22;32497;48.936;9.270;2022-10-24T06:13:15;15.40;85.60
46752;DHT22;32497;48.936;9.270;2022-10-24T06:18:17;15.10;87.50
46752;DHT22;32497;48.936;9.270;2022-10-24T06:23:18;15.20;87.30
46752;DHT22;32497;48.936;9.270;2022-10-24T06:28:20;14.90;89.90
46752;DHT22;32497;48.936;9.270;2022-10-24T06:33:22;14.90;90.30
46752;DHT22;32497;48.936;9.270;2022-10-24T06:38:23;14.80;90.40
46752;DHT22;32497;48.936;9.270;2022-10-24T06:43:24;14.70;90.00
46752;DHT22;32497;48.936;9.270;2022-10-24T06:48:27;14.80;89.80
46752;DHT22;32497;48.936;9.270;2022-10-24T06:53:28;14.90;90.00
46752;DHT22;32497;48.936;9.270;2022-10-24T06:58:30;14.90;89.10
46752;DHT22;32497;48.936;9.270;2022-10-24T07:03:32;14.90;89.20
46752;DHT22;32497;48.936;9.270;2022-10-24T07:08:34;14.90;88.80
46752;DHT22;32497;48.936;9.270;2022-10-24T07:13:35;15.00;89.10
46752;DHT22;32497;48.936;9.270;2022-10-24T07:18:37;14.80;89.60
46752;DHT22;32497;48.936;9.270;2022-10-24T07:23:38;14.90;90.20
46752;DHT22;32497;48.936;9.270;2022-10-24T07:28:40;14.80;90.50
46752;DHT22;32497;48.936;9.270;2022-10-24T07:33:43;14.80;89.60
46752;DHT22;32497;48.936;9.270;2022-10-24T07:38:44;14.80;89.50
46752;DHT22;32497;48.936;9.270;2022-10-24T07:43:46;14.80;90.30
46752;DHT22;32497;48.936;9.270;2022-10-24T07:48:49;14.90;90.40
46752;DHT22;32497;48.936;9.270;2022-10-24T07:53:51;14.90;90.60
46752;DHT22;32497;48.936;9.270;2022-10-24T07:58:52;14.90;90.70
46752;DHT22;32497;48.936;9.270;2022-10-24T08:03:54;15.00;90.40
46752;DHT22;32497;48.936;9.270;2022-10-24T08:08:55;15.00;89.10
46752;DHT22;32497;48.936;9.270;2022-10-24T08:13:56;15.10;89.70
46752;DHT22;32497;48.936;9.270;2022-10-24T08:18:59;15.20;89.10
46752;DHT22;32497;48.936;9.270;2022-10-24T08:24:00;15.20;89.10
46752;DHT22;32497;48.936;9.270;2022-10-24T08:29:01;15.20;88.90
46752;DHT22;32497;48.936;9.270;2022-10-24T08:34:03;15.20;88.90
46752;DHT22;32497;48.936;9.270;2022-10-24T08:39:05;15.30;88.40
46752;DHT22;32497;48.936;9.270;2022-10-24T08:44:13;15.40;87.20
46752;DHT22;32497;48.936;9.270;2022-10-24T08:49:25;15.50;87.60
46752;DHT22;32497;48.936;9.270;2022-10-24T08:54:33;15.60;87.30
46752;DHT22;32497;48.936;9.270;2022-10-24T08:59:35;15.70;86.40
46752;DHT22;32497;48.936;9.270;2022-10-24T09:04:44;15.70;86.40
46752;DHT22;32497;48.936;9.270;2022-10-24T09:09:48;15.70;87.10
46752;DHT22;32497;48.936;9.270;2022-10-24T09:14:55;15.70;86.20
46752;DHT22;32497;48.936;9.270;2022-10-24T09:20:02;15.60;86.90
46752;DHT22;32497;48.936;9.270;2022-10-24T09:25:05;15.50;86.60
46752;DHT22;32497;48.936;9.270;2022-10-24T09:30:14;15.50;86.90
46752;DHT22;32497;48.936;9.270;2022-10-24T09:35:20;15.60;86.50
46752;DHT22;32497;48.936;9.270;2022-10-24T09:40:23;15.60;86.20
46752;DHT22;32497;48.936;9.270;2022-10-24T09:45:32;15.60;86.40
46752;DHT22;32497;48.936;9.270;2022-10-24T09:50:35;15.60;86.40
46752;DHT22;32497;48.936;9.270;2022-10-24T09:55:43;15.50;87.10
46752;DHT22;32497;48.936;9.270;2022-10-24T10:00:56;15.40;87.40
46752;DHT22;32497;48.936;9.270;2022-10-24T10:06:01;15.40;87.20
46752;DHT22;32497;48.936;9.270;2022-10-24T10:11:05;15.50;86.70
46752;DHT22;32497;48.936;9.270;2022-10-24T10:16:19;15.60;86.40
46752;DHT22;32497;48.936;9.270;2022-10-24T10:21:22;15.70;85.70
46752;DHT22;32497;48.936;9.270;2022-10-24T10:26:25;15.80;85.20
46752;DHT22;32497;48.936;9.270;2022-10-24T10:31:32;15.90;85.20
46752;DHT22;32497;48.936;9.270;2022-10-24T10:36:40;16.00;85.40
46752;DHT22;32497;48.936;9.270;2022-10-24T10:41:47;16.10;85.40
46752;DHT22;32497;48.936;9.270;2022-10-24T10:46:58;16.20;84.60
46752;DHT22;32497;48.936;9.270;2022-10-24T10:52:06;16.20;84.20
46752;DHT22;32497;48.936;9.270;2022-10-24T10:57:10;16.50;81.60
46752;DHT22;32497;48.936;9.270;2022-10-24T11:02:25;16.60;81.40
46752;DHT22;32497;48.936;9.270;2022-10-24T11:07:34;16.60;81.90
46752;DHT22;32497;48.936;9.270;2022-10-24T11:12:41;16.60;80.80
46752;DHT22;32497;48.936;9.270;2022-10-24T11:17:46;16.70;80.80
46752;DHT22;32497;48.936;9.270;2022-10-24T11:22:54;16.70;80.10
46752;DHT22;32497;48.936;9.270;2022-10-24T11:28:01;16.70;79.40
46752;DHT22;32497;48.936;9.270;2022-10-24T11:33:05;16.70;79.00
46752;DHT22;32497;48.936;9.270;2022-10-24T11:38:13;16.80;79.30
46752;DHT22;32497;48.936;9.270;2022-10-24T11:43:18;16.80;77.60
46752;DHT22;32497;48.936;9.270;2022-10-24T11:48:24;16.80;77.80
46752;DHT22;32497;48.936;9.270;2022-10-24T11:53:48;16.90;77.00
46752;DHT22;32497;48.936;9.270;2022-10-24T11:58:55;16.90;78.20
46752;DHT22;32497;48.936;9.270;2022-10-24T12:04:09;16.90;76.80
46752;DHT22;32497;48.936;9.270;2022-10-24T12:15:00;17.00;76.80
46752;DHT22;32497;48.936;9.270;2022-10-24T12:20:11;17.00;77.10
46752;DHT22;32497;48.936;9.270;2022-10-24T12:25:27;17.00;76.90
46752;DHT22;32497;48.936;9.270;2022-10-24T12:30:30;16.90;77.90
46752;DHT22;32497;48.936;9.270;2022-10-24T12:35:48;17.00;77.60
46752;DHT22;32497;48.936;9.270;2022-10-24T12:40:53;17.10;77.60
46752;DHT22;32497;48.936;9.270;2022-10-24T12:45:55;17.00;77.40
46752;DHT22;32497;48.936;9.270;2022-10-24T12:56:17;17.10;77.20
46752;DHT22;32497;48.936;9.270;2022-10-24T13:01:23;17.10;77.30
46752;DHT22;32497;48.936;9.270;2022-10-24T13:06:28;17.20;77.50
46752;DHT22;32497;48.936;9.270;2022-10-24T13:11:42;17.60;76.10
46752;DHT22;32497;48.936;9.270;2022-10-24T13:16:56;17.60;76.10
46752;DHT22;32497;48.936;9.270;2022-10-24T13:21:59;17.60;76.00
46752;DHT22;32497;48.936;9.270;2022-10-24T13:27:30;17.40;76.40
46752;DHT22;32497;48.936;9.270;2022-10-24T13:32:32;17.60;76.60
46752;DHT22;32497;48.936;9.270;2022-10-24T13:37:36;17.50;76.00
46752;DHT22;32497;48.936;9.270;2022-10-24T13:42:48;17.60;76.10
46752;DHT22;32497;48.936;9.270;2022-10-24T13:47:52;17.60;76.10
46752;DHT22;32497;48.936;9.270;2022-10-24T13:52:56;17.50;76.30
46752;DHT22;32497;48.936;9.270;2022-10-24T13:58:10;17.50;75.70
46752;DHT22;32497;48.936;9.270;2022-10-24T14:03:16;17.50;76.50
46752;DHT22;32497;48.936;9.270;2022-10-24T14:08:23;17.60;76.90
46752;DHT22;32497;48.936;9.270;2022-10-24T14:13:28;17.80;75.30
46752;DHT22;32497;48.936;9.270;2022-10-24T14:18:30;17.60;75.50
46752;DHT22;32497;48.936;9.270;2022-10-24T14:23:32;17.50;76.20
46752;DHT22;32497;48.936;9.270;2022-10-24T14:28:37;17.70;75.10
46752;DHT22;32497;48.936;9.270;2022-10-24T14:33:44;17.40;75.20
46752;DHT22;32497;48.936;9.270;2022-10-24T14:38:46;17.40;75.20
46752;DHT22;32497;48.936;9.270;2022-10-24T14:43:49;17.40;76.00
46752;DHT22;32497;48.936;9.270;2022-10-24T14:48:52;17.30;76.20
46752;DHT22;32497;48.936;9.270;2022-10-24T14:53:53;17.40;75.60
46752;DHT22;32497;48.936;9.270;2022-10-24T14:58:58;17.90;73.90
46752;DHT22;32497;48.936;9.270;2022-10-24T15:04:01;18.00;72.50
46752;DHT22;32497;48.936;9.270;2022-10-24T15:09:05;17.70;73.20
46752;DHT22;32497;48.936;9.270;2022-10-24T15:14:35;17.50;74.50
46752;DHT22;32497;48.936;9.270;2022-10-24T15:19:37;17.30;74.20
46752;DHT22;32497;48.936;9.270;2022-10-24T15:24:38;17.20;74.40
46752;DHT22;32497;48.936;9.270;2022-10-24T15:29:44;17.10;74.60
46752;DHT22;32497;48.936;9.270;2022-10-24T15:34:45;17.00;74.80
46752;DHT22;32497;48.936;9.270;2022-10-24T15:39:49;16.90;74.50
46752;DHT22;32497;48.936;9.270;2022-10-24T15:44:55;16.80;74.20
46752;DHT22;32497;48.936;9.270;2022-10-24T15:49:56;16.70;75.00
46752;DHT22;32497;48.936;9.270;2022-10-24T15:55:08;16.60;75.20
46752;DHT22;32497;48.936;9.270;2022-10-24T16:00:13;16.40;75.60
46752;DHT22;32497;48.936;9.270;2022-10-24T16:05:16;16.30;75.80
46752;DHT22;32497;48.936;9.270;2022-10-24T16:10:21;16.20;76.70
46752;DHT22;32497;48.936;9.270;2022-10-24T16:15:26;16.00;77.60
46752;DHT22;32497;48.936;9.270;2022-10-24T16:20:28;15.70;78.50
46752;DHT22;32497;48.936;9.270;2022-10-24T16:25:38;15.70;78.50
46752;DHT22;32497;48.936;9.270;2022-10-24T16:30:46;15.70;78.70
46752;DHT22;32497;48.936;9.270;2022-10-24T16:35:48;15.70;79.00
46752;DHT22;32497;48.936;9.270;2022-10-24T16:40:49;15.70;79.10
46752;DHT22;32497;48.936;9.270;2022-10-24T16:45:59;15.70;79.70
46752;DHT22;32497;48.936;9.270;2022-10-24T16:51:00;15.50;80.90
46752;DHT22;32497;48.936;9.270;2022-10-24T16:56:01;15.30;83.80
46752;DHT22;32497;48.936;9.270;2022-10-24T17:01:06;15.10;84.10
46752;DHT22;32497;48.936;9.270;2022-10-24T17:06:07;15.00;84.80
46752;DHT22;32497;48.936;9.270;2022-10-24T17:11:08;14.90;84.70
46752;DHT22;32497;48.936;9.270;2022-10-24T17:16:11;15.00;84.40
46752;DHT22;32497;48.936;9.270;2022-10-24T17:21:16;15.10;83.10
46752;DHT22;32497;48.936;9.270;2022-10-24T17:26:17;15.20;82.20
46752;DHT22;32497;48.936;9.270;2022-10-24T17:31:20;15.10;83.80
46752;DHT22;32497;48.936;9.270;2022-10-24T17:36:25;14.80;85.20
46752;DHT22;32497;48.936;9.270;2022-10-24T17:41:29;14.50;86.90
46752;DHT22;32497;48.936;9.270;2022-10-24T17:46:32;14.10;90.00
46752;DHT22;32497;48.936;9.270;2022-10-24T17:51:34;14.10;89.60
46752;DHT22;32497;48.936;9.270;2022-10-24T17:56:35;14.00;89.50
46752;DHT22;32497;48.936;9.270;2022-10-24T18:01:37;14.00;89.90
46752;DHT22;32497;48.936;9.270;2022-10-24T18:06:38;14.00;89.70
46752;DHT22;32497;48.936;9.270;2022-10-24T18:11:39;14.00;89.80
46752;DHT22;32497;48.936;9.270;2022-10-24T18:16:43;14.20;90.10
46752;DHT22;32497;48.936;9.270;2022-10-24T18:21:44;14.20;87.50
46752;DHT22;32497;48.936;9.270;2022-10-24T18:26:45;13.40;88.30
46752;DHT22;32497;48.936;9.270;2022-10-24T18:31:47;12.30;88.10
46752;DHT22;32497;48.936;9.270;2022-10-24T18:36:48;11.80;89.20
46752;DHT22;32497;48.936;9.270;2022-10-24T18:41:54;11.60;90.40
46752;DHT22;32497;48.936;9.270;2022-10-24T18:46:59;11.60;91.70
46752;DHT22;32497;48.936;9.270;2022-10-24T18:52:11;11.60;92.00
46752;DHT22;32497;48.936;9.270;2022-10-24T18:57:21;11.80;92.00
46752;DHT22;32497;48.936;9.270;2022-10-24T19:02:29;11.80;92.10
46752;DHT22;32497;48.936;9.270;2022-10-24T19:07:31;11.80;92.20
46752;DHT22;32497;48.936;9.270;2022-10-24T19:12:33;11.70;91.90
46752;DHT22;32497;48.936;9.270;2022-10-24T19:17:35;11.70;91.80
46752;DHT22;32497;48.936;9.270;2022-10-24T19:22:36;11.60;91.90
46752;DHT22;32497;48.936;9.270;2022-10-24T19:27:37;11.50;92.10
46752;DHT22;32497;48.936;9.270;2022-10-24T19:32:40;11.60;92.40
46752;DHT22;32497;48.936;9.270;2022-10-24T19:37:41;11.50;92.40
46752;DHT22;32497;48.936;9.270;2022-10-24T19:42:42;11.50;92.70
46752;DHT22;32497;48.936;9.270;2022-10-24T19:47:45;11.60;92.80
46752;DHT22;32497;48.936;9.270;2022-10-24T19:52:58;11.70;92.90
46752;DHT22;32497;48.936;9.270;2022-10-24T19:57:59;11.80;92.70
46752;DHT22;32497;48.936;9.270;2022-10-24T20:03:02;11.70;92.40
46752;DHT22;32497;48.936;9.270;2022-10-24T20:08:03;11.80;92.60
46752;DHT22;32497;48.936;9.270;2022-10-24T20:13:04;11.80;92.70
46752;DHT22;32497;48.936;9.270;2022-10-24T20:18:06;11.80;92.70
46752;DHT22;32497;48.936;9.270;2022-10-24T20:23:07;11.90;92.90
46752;DHT22;32497;48.936;9.270;2022-10-24T20:28:09;11.90;92.40
46752;DHT22;32497;48.936;9.270;2022-10-24T20:33:11;12.00;92.10
46752;DHT22;32497;48.936;9.270;2022-10-24T20:38:13;12.10;92.30
46752;DHT22;32497;48.936;9.270;2022-10-24T20:43:15;12.10;91.80
46752;DHT22;32497;48.936;9.270;2022-10-24T20:48:17;12.20;92.10
46752;DHT22;32497;48.936;9.270;2022-10-24T20:53:18;12.20;91.70
46752;DHT22;32497;48.936;9.270;2022-10-24T20:58:19;12.20;92.00
46752;DHT22;32497;48.936;9.270;2022-10-24T21:03:22;12.20;92.30
46752;DHT22;32497;48.936;9.270;2022-10-24T21:08:23;12.10;92.30
46752;DHT22;32497;48.936;9.270;2022-10-24T21:13:24;12.20;92.40
46752;DHT22;32497;48.936;9.270;2022-10-24T21:18:26;12.10;92.60
46752;DHT22;32497;48.936;9.270;2022-10-24T21:23:27;12.10;92.60
46752;DHT22;32497;48.936;9.270;2022-10-24T21:28:28;12.10;92.60
46752;DHT22;32497;48.936;9.270;2022-10-24T21:33:31;11.90;92.70
46752;DHT22;32497;48.936;9.270;2022-10-24T21:38:33;11.80;92.70
46752;DHT22;32497;48.936;9.270;2022-10-24T21:43:36;11.70;92.80
46752;DHT22;32497;48.936;9.270;2022-10-24T21:48:40;11.60;92.80
46752;DHT22;32497;48.936;9.270;2022-10-24T21:53:43;11.60;92.80
46752;DHT22;32497;48.936;9.270;2022-10-24T21:58:46;11.60;92.90
46752;DHT22;32497;48.936;9.270;2022-10-24T22:03:48;11.60;92.90
46752;DHT22;32497;48.936;9.270;2022-10-24T22:08:50;11.60;92.80
46752;DHT22;32497;48.936;9.270;2022-10-24T22:13:52;11.50;92.80
46752;DHT22;32497;48.936;9.270;2022-10-24T22:18:55;11.40;92.90
46752;DHT22;32497;48.936;9.270;2022-10-24T22:23:57;11.40;92.90
46752;DHT22;32497;48.936;9.270;2022-10-24T22:28:58;11.30;92.90
46752;DHT22;32497;48.936;9.270;2022-10-24T22:34:01;11.20;92.90
46752;DHT22;32497;48.936;9.270;2022-10-24T22:39:03;11.10;92.80
46752;DHT22;32497;48.936;9.270;2022-10-24T22:44:04;11.10;93.00
46752;DHT22;32497;48.936;9.270;2022-10-24T22:49:14;11.10;92.90
46752;DHT22;32497;48.936;9.270;2022-10-24T22:54:23;11.10;93.00
46752;DHT22;32497;48.936;9.270;2022-10-24T22:59:25;11.00;92.80
46752;DHT22;32497;48.936;9.270;2022-10-24T23:04:33;11.00;92.90
46752;DHT22;32497;48.936;9.270;2022-10-24T23:09:35;10.90;92.90
46752;DHT22;32497;48.936;9.270;2022-10-24T23:14:36;10.90;92.90
46752;DHT22;32497;48.936;9.270;2022-10-24T23:19:42;10.90;92.80
46752;DHT22;32497;48.936;9.270;2022-10-24T23:24:44;10.90;92.90
46752;DHT22;32497;48.936;9.270;2022-10-24T23:29:46;10.90;92.80
46752;DHT22;32497;48.936;9.270;2022-10-24T23:34:49;10.90;92.70
46752;DHT22;32497;48.936;9.270;2022-10-24T23:39:51;10.80;92.90
46752;DHT22;32497;48.936;9.270;2022-10-24T23:44:53;10.80;92.80
46752;DHT22;32497;48.936;9.270;2022-10-24T23:50:00;10.80;92.60
46752;DHT22;32497;48.936;9.270;2022-10-24T23:55:04;10.70;92.70
